Time;durP1;ratioP1;P1;durP2;ratioP2;P2;SDS_P1;SDS_P2;PMS_P1;PMS_P2;Temp;Humidity;BMP_temperature;BMP_pressure;BME280_temperature;BME280_humidity;BME280_pressure;Samples;Min_cycle;Max_cycle;Signal;HPM_P1;HPM_P2
2023/02/03 00:02:19;;;;;;;9.05;5.97;;;;;;;3.61;87.56;101606.50;5058087;28;20173;-79
2023/02/03 00:04:51;;;;;;;10.48;6.20;;;;;;;3.61;88.27;101601.13;5040335;28;20213;-78
2023/02/03 00:07:24;;;;;;;11.02;5.57;;;;;;;3.71;87.76;101598.47;5041201;28;20221;-77
2023/02/03 00:09:57;;;;;;;8.05;5.95;;;;;;;3.78;87.45;101589.72;5040778;28;20207;-77
2023/02/03 00:12:28;;;;;;;6.95;4.50;;;;;;;3.78;87.59;101587.03;5041064;28;20196;-78
2023/02/03 00:15:04;;;;;;;14.68;7.05;;;;;;;3.65;88.06;101575.78;5057765;28;20197;-77
2023/02/03 00:17:41;;;;;;;12.98;6.35;;;;;;;3.75;88.65;101571.25;5040540;28;20165;-77
2023/02/03 00:20:19;;;;;;;14.57;5.40;;;;;;;3.73;88.22;101567.88;5057637;28;20154;-77
2023/02/03 00:22:54;;;;;;;14.57;4.63;;;;;;;3.75;88.22;101554.34;5058259;28;20169;-77
2023/02/03 00:25:27;;;;;;;6.00;4.07;;;;;;;3.78;89.00;101549.56;5040247;28;20848;-76
2023/02/03 00:28:01;;;;;;;8.93;4.45;;;;;;;3.75;88.95;101551.69;5057732;28;20192;-78
2023/02/03 00:30:35;;;;;;;15.43;3.53;;;;;;;3.62;90.13;101538.59;5057634;28;20154;-77
2023/02/03 00:33:09;;;;;;;6.57;4.03;;;;;;;3.66;90.30;101531.97;5040485;28;20180;-77
2023/02/03 00:35:42;;;;;;;10.85;4.75;;;;;;;3.59;91.24;101528.16;5052768;28;20225;-78
2023/02/03 00:38:12;;;;;;;7.68;3.60;;;;;;;3.61;91.98;101518.16;5034615;28;20177;-78
2023/02/03 00:40:43;;;;;;;10.52;3.40;;;;;;;3.54;92.18;101511.66;5034797;28;20280;-78
2023/02/03 00:43:12;;;;;;;8.85;4.32;;;;;;;3.57;92.69;101500.69;5035462;28;20297;-78
2023/02/03 00:45:45;;;;;;;16.02;4.05;;;;;;;3.58;93.19;101485.50;5032608;28;20210;-77
2023/02/03 00:48:16;;;;;;;8.52;3.20;;;;;;;3.58;94.44;101490.84;5020025;28;20191;-77
2023/02/03 00:50:47;;;;;;;10.10;4.57;;;;;;;3.65;94.79;101490.13;5003697;28;20202;-79
2023/02/03 00:53:17;;;;;;;7.47;3.60;;;;;;;3.60;95.18;101503.09;5001732;28;20198;-81
2023/02/03 00:55:46;;;;;;;12.48;3.78;;;;;;;3.74;96.42;101494.63;5019252;28;20228;-79
2023/02/03 00:58:16;;;;;;;18.67;3.72;;;;;;;3.87;96.35;101497.00;5001631;28;20269;-79
2023/02/03 01:00:45;;;;;;;6.63;4.00;;;;;;;3.75;96.42;101493.63;5019975;28;20449;-78
2023/02/03 01:03:23;;;;;;;6.75;3.92;;;;;;;3.73;97.46;101484.88;5001774;28;20194;-78
2023/02/03 01:05:53;;;;;;;8.23;4.22;;;;;;;3.69;97.56;101483.47;5020505;28;20706;-77
2023/02/03 01:08:23;;;;;;;12.68;4.72;;;;;;;3.68;97.52;101476.44;5023946;28;20210;-80
2023/02/03 01:10:55;;;;;;;9.25;4.03;;;;;;;3.48;98.77;101469.44;5011572;28;20205;-78
2023/02/03 01:13:25;;;;;;;17.63;6.18;;;;;;;3.53;99.39;101467.19;5033025;28;20174;-79
2023/02/03 01:15:59;;;;;;;7.65;3.58;;;;;;;3.49;99.79;101482.66;5018254;28;20218;-78
2023/02/03 01:18:33;;;;;;;7.78;3.63;;;;;;;3.50;99.48;101472.81;5034769;28;20170;-78
2023/02/03 01:21:12;;;;;;;8.02;4.25;;;;;;;3.35;100.00;101458.16;5012625;28;20221;-81
2023/02/03 01:23:47;;;;;;;11.57;4.55;;;;;;;3.38;100.00;101452.56;5001318;28;20288;-80
2023/02/03 01:26:19;;;;;;;10.02;4.65;;;;;;;3.30;100.00;101455.91;5001119;28;20220;-78
2023/02/03 01:28:54;;;;;;;9.15;4.97;;;;;;;3.11;100.00;101444.38;5017905;28;20198;-80
2023/02/03 01:31:26;;;;;;;8.63;4.80;;;;;;;3.25;100.00;101434.09;4999712;28;20189;-77
2023/02/03 01:33:59;;;;;;;8.25;5.53;;;;;;;3.23;100.00;101419.19;4999105;28;20194;-79
2023/02/03 01:36:33;;;;;;;7.13;4.22;;;;;;;3.21;100.00;101418.47;5015800;28;20213;-79
2023/02/03 01:39:04;;;;;;;10.18;4.45;;;;;;;3.08;100.00;101420.59;4999691;28;20593;-79
2023/02/03 01:41:35;;;;;;;10.88;4.97;;;;;;;3.17;100.00;101415.25;5017172;28;20174;-79
2023/02/03 01:44:38;;;;;;;9.88;4.47;;;;;;;3.18;100.00;101413.44;5019231;28;20561;-80
2023/02/03 01:47:22;;;;;;;11.77;4.70;;;;;;;3.05;100.00;101401.16;5006996;28;20615;-80
2023/02/03 01:50:02;;;;;;;7.20;3.78;;;;;;;3.01;100.00;101389.06;5019653;28;20493;-78
2023/02/03 01:52:34;;;;;;;5.50;4.03;;;;;;;2.87;100.00;101372.63;5037199;28;20181;-77
2023/02/03 01:55:08;;;;;;;11.18;4.63;;;;;;;2.91;100.00;101366.84;5019582;28;20202;-78
2023/02/03 01:57:42;;;;;;;8.50;4.18;;;;;;;2.78;100.00;101366.28;5019791;28;20185;-78
2023/02/03 02:00:16;;;;;;;10.90;3.90;;;;;;;2.86;100.00;101368.25;5013932;28;20216;-78
2023/02/03 02:02:48;;;;;;;7.30;4.20;;;;;;;2.79;100.00;101367.97;5017026;28;20178;-80
2023/02/03 02:05:37;;;;;;;5.15;3.88;;;;;;;2.87;100.00;101369.94;5016978;28;20230;-78
2023/02/03 02:08:09;;;;;;;6.78;4.20;;;;;;;2.80;100.00;101361.66;5000843;28;20218;-79
2023/02/03 02:10:39;;;;;;;7.35;4.05;;;;;;;2.95;100.00;101354.06;5020609;28;20194;-78
2023/02/03 02:13:09;;;;;;;10.50;4.55;;;;;;;2.93;100.00;101339.97;5020169;28;20197;-78
2023/02/03 02:15:50;;;;;;;4.20;3.80;;;;;;;2.81;100.00;101331.25;5005285;28;20229;-81
2023/02/03 02:18:36;;;;;;;5.57;4.50;;;;;;;2.80;100.00;101313.56;5019393;28;20174;-78
2023/02/03 02:21:41;;;;;;;5.00;3.70;;;;;;;2.88;100.00;101310.16;5019949;28;20241;-79
2023/02/03 02:24:43;;;;;;;10.82;4.75;;;;;;;2.86;100.00;101302.28;5021695;28;20178;-79
2023/02/03 02:27:44;;;;;;;5.45;4.00;;;;;;;2.82;100.00;101300.03;5005525;28;20729;-78
2023/02/03 02:30:43;;;;;;;6.65;4.15;;;;;;;2.77;100.00;101276.41;5025258;28;20204;-78
2023/02/03 02:33:22;;;;;;;5.60;3.70;;;;;;;2.71;100.00;101271.63;5010178;28;20190;-77
2023/02/03 02:36:09;;;;;;;11.75;4.53;;;;;;;2.74;100.00;101258.00;5005722;28;20230;-80
2023/02/03 02:38:49;;;;;;;6.30;3.50;;;;;;;2.75;100.00;101235.63;5002063;28;20183;-79
2023/02/03 02:41:25;;;;;;;5.50;3.95;;;;;;;2.72;100.00;101230.56;5007904;28;20262;-79
2023/02/03 02:44:02;;;;;;;7.07;4.10;;;;;;;2.72;100.00;101219.84;5018759;28;20189;-78
2023/02/03 02:46:38;;;;;;;8.00;4.50;;;;;;;2.68;100.00;101213.13;5020757;28;20305;-78
2023/02/03 02:49:15;;;;;;;4.50;4.10;;;;;;;2.88;100.00;101208.56;5037859;28;20194;-78
2023/02/03 02:51:47;;;;;;;4.05;3.65;;;;;;;2.80;100.00;101212.00;5003121;28;20268;-78
2023/02/03 02:54:25;;;;;;;7.15;3.20;;;;;;;2.67;100.00;101200.75;5020166;28;20186;-78
2023/02/03 02:57:01;;;;;;;5.05;3.70;;;;;;;2.77;100.00;101203.38;5020019;28;20634;-78
2023/02/03 02:59:31;;;;;;;3.75;3.30;;;;;;;2.62;100.00;101192.31;5001715;28;20217;-77
2023/02/03 03:02:01;;;;;;;3.75;3.30;;;;;;;2.64;100.00;101179.66;5002015;28;20198;-80
2023/02/03 03:04:34;;;;;;;4.15;3.50;;;;;;;2.72;100.00;101171.75;5002778;28;20248;-79
2023/02/03 03:07:08;;;;;;;4.45;3.35;;;;;;;2.67;100.00;101173.16;5005572;28;20198;-78
2023/02/03 03:09:43;;;;;;;5.10;3.83;;;;;;;2.67;100.00;101170.50;5004500;28;20228;-79
2023/02/03 03:12:19;;;;;;;7.43;5.25;;;;;;;2.71;100.00;101172.75;5026840;28;20205;-78
2023/02/03 03:14:53;;;;;;;6.55;4.10;;;;;;;2.70;100.00;101152.38;5008431;28;20280;-79
2023/02/03 03:17:28;;;;;;;5.20;4.40;;;;;;;2.80;100.00;101147.84;5028270;28;20173;-78
2023/02/03 03:20:07;;;;;;;4.38;3.40;;;;;;;2.65;100.00;101133.25;5032727;28;20177;-79
2023/02/03 03:22:45;;;;;;;4.75;3.88;;;;;;;2.71;100.00;101116.63;5007423;28;20190;-81
2023/02/03 03:25:18;;;;;;;4.57;3.20;;;;;;;2.75;100.00;101115.38;5030874;28;20190;-78
2023/02/03 03:27:52;;;;;;;6.45;3.67;;;;;;;2.85;100.00;101112.66;5021197;28;20182;-79
2023/02/03 03:30:26;;;;;;;4.28;3.65;;;;;;;2.72;100.00;101106.78;5036354;28;20196;-77
2023/02/03 03:32:57;;;;;;;3.47;3.15;;;;;;;2.71;100.00;101099.78;5021604;28;20601;-77
2023/02/03 03:35:32;;;;;;;6.93;3.13;;;;;;;2.66;100.00;101092.19;5039385;28;20204;-76
2023/02/03 03:38:07;;;;;;;4.07;2.90;;;;;;;2.75;100.00;101091.31;5021172;28;20194;-77
2023/02/03 03:40:42;;;;;;;3.75;3.00;;;;;;;2.67;100.00;101072.47;5019430;28;20196;-77
2023/02/03 03:43:16;;;;;;;5.13;2.88;;;;;;;2.87;100.00;101079.44;5014517;28;20194;-78
2023/02/03 03:45:52;;;;;;;3.30;2.97;;;;;;;2.91;100.00;101096.84;5031855;28;20213;-78
2023/02/03 03:48:29;;;;;;;5.35;3.67;;;;;;;2.79;100.00;101086.50;5031738;28;20178;-78
2023/02/03 03:51:03;;;;;;;3.28;2.50;;;;;;;2.88;100.00;101064.22;5034269;28;20201;-78
2023/02/03 03:53:35;;;;;;;2.67;2.45;;;;;;;2.87;100.00;101073.25;5030192;28;20186;-77
2023/02/03 03:56:12;;;;;;;3.05;2.38;;;;;;;3.05;100.00;101090.16;5032369;28;20206;-78
2023/02/03 03:58:46;;;;;;;2.92;2.45;;;;;;;3.08;100.00;101065.81;5034766;28;20170;-78
2023/02/03 04:01:16;;;;;;;2.95;2.55;;;;;;;3.10;100.00;101065.69;5038435;28;20159;-77
2023/02/03 04:03:50;;;;;;;3.10;2.60;;;;;;;3.06;100.00;101073.13;5038115;28;20177;-77
2023/02/03 04:06:21;;;;;;;4.03;3.17;;;;;;;3.20;100.00;101085.16;5038021;28;20206;-77
2023/02/03 04:08:50;;;;;;;3.13;2.83;;;;;;;3.16;100.00;101075.75;5037611;28;20178;-77
2023/02/03 04:14:03;;;;;;;4.85;3.08;;;;;;;3.24;100.00;101039.28;5015824;28;20192;-77
2023/02/03 04:16:33;;;;;;;4.00;2.75;;;;;;;3.38;100.00;101038.75;5033933;28;20254;-78
2023/02/03 04:19:03;;;;;;;4.45;2.70;;;;;;;3.47;100.00;101028.94;5033046;28;20174;-78
2023/02/03 04:21:35;;;;;;;3.85;2.72;;;;;;;3.39;100.00;101015.47;5014347;28;20190;-77
2023/02/03 04:24:05;;;;;;;4.30;3.67;;;;;;;3.50;100.00;101012.59;5030143;28;20190;-78
2023/02/03 04:26:34;;;;;;;3.45;3.15;;;;;;;3.64;100.00;100998.66;5034010;28;20181;-78
2023/02/03 04:29:06;;;;;;;4.85;4.35;;;;;;;3.70;100.00;100998.03;5019546;28;20189;-78
2023/02/03 04:31:37;;;;;;;5.60;4.60;;;;;;;3.80;100.00;101004.16;5036027;28;20198;-77
2023/02/03 04:34:07;;;;;;;5.75;4.45;;;;;;;3.79;100.00;100985.56;5018841;28;20194;-78
2023/02/03 04:36:37;;;;;;;6.18;5.10;;;;;;;3.87;100.00;100999.03;5033288;28;20178;-78
2023/02/03 04:39:06;;;;;;;6.05;5.45;;;;;;;4.00;100.00;100982.53;5015471;28;20383;-78
2023/02/03 04:41:36;;;;;;;6.78;5.25;;;;;;;4.00;100.00;100979.84;5027173;28;20575;-78
2023/02/03 04:44:05;;;;;;;7.32;6.47;;;;;;;4.11;100.00;100974.25;5022407;28;20281;-79
2023/02/03 04:46:35;;;;;;;18.30;6.78;;;;;;;4.13;100.00;100964.19;5019872;28;20173;-79
2023/02/03 04:49:05;;;;;;;6.72;6.03;;;;;;;4.26;100.00;100953.91;5019354;28;20193;-79
2023/02/03 04:51:36;;;;;;;9.07;6.78;;;;;;;4.26;100.00;100945.88;5030628;28;20193;-79
2023/02/03 04:54:05;;;;;;;9.00;6.35;;;;;;;4.36;100.00;100943.88;5020959;28;20193;-79
2023/02/03 04:56:35;;;;;;;11.52;7.57;;;;;;;4.37;100.00;100942.88;5020528;28;20207;-79
2023/02/03 04:59:04;;;;;;;11.32;7.75;;;;;;;4.35;100.00;100940.38;5037952;28;20243;-79
2023/02/03 05:01:34;;;;;;;10.35;9.07;;;;;;;4.49;100.00;100928.22;5020428;28;20644;-79
2023/02/03 05:04:04;;;;;;;10.20;8.68;;;;;;;4.49;100.00;100925.53;5038014;28;20294;-78
2023/02/03 05:06:33;;;;;;;16.10;10.93;;;;;;;4.51;100.00;100922.66;5036419;28;20213;-78
2023/02/03 05:09:05;;;;;;;11.35;8.15;;;;;;;4.64;100.00;100923.06;5036284;28;20201;-78
2023/02/03 05:11:34;;;;;;;16.80;11.70;;;;;;;4.79;100.00;100916.06;5036332;28;20224;-77
2023/02/03 05:14:04;;;;;;;13.50;10.40;;;;;;;4.90;100.00;100915.72;5037903;28;20190;-78
2023/02/03 05:16:33;;;;;;;14.95;11.80;;;;;;;4.92;100.00;100908.38;5018749;28;20218;-79
2023/02/03 05:19:03;;;;;;;16.58;13.10;;;;;;;5.09;100.00;100901.16;5018009;28;20186;-79
2023/02/03 05:21:32;;;;;;;17.65;12.80;;;;;;;5.09;100.00;100901.16;5022025;28;20201;-80
2023/02/03 05:24:06;;;;;;;17.13;12.88;;;;;;;5.20;100.00;100914.25;4999918;28;20198;-79
2023/02/03 05:26:37;;;;;;;20.25;13.27;;;;;;;5.30;100.00;100898.84;5000533;28;20198;-79
2023/02/03 05:29:10;;;;;;;19.55;13.68;;;;;;;5.40;100.00;100888.78;5017582;28;20175;-78
2023/02/03 05:31:44;;;;;;;23.77;15.18;;;;;;;5.37;100.00;100889.13;5000221;28;20285;-78
2023/02/03 05:34:16;;;;;;;22.33;14.07;;;;;;;5.52;100.00;100886.56;5017254;28;20217;-77
2023/02/03 05:36:47;;;;;;;19.23;14.48;;;;;;;5.57;100.00;100877.00;5000064;28;20566;-79
2023/02/03 05:39:26;;;;;;;23.95;15.65;;;;;;;5.59;100.00;100871.47;5018933;28;20204;-80
2023/02/03 05:41:55;;;;;;;27.38;14.88;;;;;;;5.74;100.00;100858.19;5032177;28;20201;-79
2023/02/03 05:44:28;;;;;;;24.42;15.30;;;;;;;5.78;100.00;100851.47;5016138;28;20174;-78
2023/02/03 05:47:01;;;;;;;28.65;16.98;;;;;;;5.81;100.00;100845.75;5035600;28;20197;-78
2023/02/03 05:49:34;;;;;;;25.45;17.45;;;;;;;5.89;100.00;100835.03;5035857;28;20208;-79
2023/02/03 05:52:04;;;;;;;27.42;17.98;;;;;;;5.98;100.00;100839.34;5030955;28;20217;-78
2023/02/03 05:54:36;;;;;;;26.58;17.83;;;;;;;6.00;100.00;100826.59;5044247;28;20224;-78
2023/02/03 05:57:08;;;;;;;22.35;15.55;;;;;;;6.07;100.00;100827.56;5047522;28;20169;-77
2023/02/03 05:59:38;;;;;;;25.88;17.13;;;;;;;6.19;100.00;100828.03;5035070;28;20182;-78
2023/02/03 06:02:08;;;;;;;31.40;18.90;;;;;;;6.28;100.00;100824.28;5034492;28;20622;-77
2023/02/03 06:04:38;;;;;;;30.73;18.75;;;;;;;6.36;100.00;100803.56;5016447;28;20206;-78
2023/02/03 06:07:07;;;;;;;26.42;19.45;;;;;;;6.41;100.00;100795.81;5053376;28;20192;-78
2023/02/03 06:09:39;;;;;;;29.63;18.90;;;;;;;6.42;100.00;100799.31;5035918;28;20205;-78
2023/02/03 06:12:08;;;;;;;31.33;20.67;;;;;;;6.39;100.00;100781.69;5018429;28;20222;-79
2023/02/03 06:14:38;;;;;;;30.83;18.75;;;;;;;6.50;100.00;100780.44;5019731;28;20214;-77
2023/02/03 06:17:09;;;;;;;25.80;18.10;;;;;;;6.55;100.00;100784.28;5023168;28;20174;-77
2023/02/03 06:19:39;;;;;;;25.77;18.42;;;;;;;6.52;100.00;100781.13;5041498;28;20174;-79
2023/02/03 06:22:09;;;;;;;31.02;18.30;;;;;;;6.53;100.00;100772.84;5040929;28;20202;-78
2023/02/03 06:24:40;;;;;;;29.15;18.58;;;;;;;6.64;100.00;100770.75;5023385;28;20220;-79
2023/02/03 06:27:13;;;;;;;27.27;17.90;;;;;;;6.71;100.00;100771.72;5040969;28;20175;-79
2023/02/03 06:29:43;;;;;;;28.23;19.45;;;;;;;6.69;100.00;100765.69;5023461;28;20166;-78
2023/02/03 06:32:13;;;;;;;25.15;17.20;;;;;;;6.71;100.00;100777.94;5040908;28;20233;-78
2023/02/03 06:34:43;;;;;;;27.63;17.98;;;;;;;6.62;100.00;100779.03;5040305;28;20186;-78
2023/02/03 06:37:13;;;;;;;30.73;17.10;;;;;;;6.68;100.00;100774.78;5039125;28;20194;-78
2023/02/03 06:39:44;;;;;;;30.67;19.20;;;;;;;6.78;100.00;100767.28;5028706;28;20197;-79
2023/02/03 06:42:14;;;;;;;26.88;17.27;;;;;;;6.82;100.00;100774.00;5011535;28;20182;-78
2023/02/03 06:44:44;;;;;;;27.73;19.40;;;;;;;6.84;100.00;100767.41;5029129;28;20214;-78
2023/02/03 06:47:13;;;;;;;22.27;15.70;;;;;;;6.79;100.00;100759.06;5037491;28;20189;-77
2023/02/03 06:49:43;;;;;;;24.77;18.10;;;;;;;6.85;100.00;100760.19;5039098;28;20189;-78
2023/02/03 06:52:14;;;;;;;32.45;19.02;;;;;;;6.85;100.00;100747.56;5022608;28;20580;-77
2023/02/03 06:54:45;;;;;;;25.17;16.52;;;;;;;6.89;100.00;100737.28;5038994;28;20210;-77
2023/02/03 06:57:15;;;;;;;29.70;17.50;;;;;;;6.88;100.00;100744.50;5039582;28;20174;-78
2023/02/03 06:59:47;;;;;;;25.27;17.75;;;;;;;6.96;100.00;100732.84;5038436;28;20182;-77
2023/02/03 07:02:20;;;;;;;31.30;17.27;;;;;;;6.95;100.00;100725.78;5036179;28;20238;-78
2023/02/03 07:04:49;;;;;;;22.25;14.80;;;;;;;6.99;100.00;100717.19;5017873;28;20224;-78
2023/02/03 07:07:19;;;;;;;26.70;16.45;;;;;;;7.09;100.00;100716.06;5024764;28;20186;-79
2023/02/03 07:09:51;;;;;;;19.77;15.48;;;;;;;7.05;100.00;100706.69;5027359;28;20186;-78
2023/02/03 07:12:21;;;;;;;18.05;16.10;;;;;;;7.09;100.00;100703.47;5012408;28;20237;-79
2023/02/03 07:14:51;;;;;;;23.80;16.40;;;;;;;7.09;100.00;100689.16;5031123;28;20233;-79
2023/02/03 07:17:21;;;;;;;23.08;15.07;;;;;;;7.07;100.00;100692.03;5029510;28;20658;-78
2023/02/03 07:19:51;;;;;;;22.42;16.20;;;;;;;7.12;100.00;100695.00;5033110;28;20274;-77
2023/02/03 07:22:21;;;;;;;24.20;15.65;;;;;;;7.11;100.00;100687.13;5031301;28;20186;-79
2023/02/03 07:24:52;;;;;;;16.88;14.43;;;;;;;7.15;100.00;100689.28;5021481;28;20724;-79
2023/02/03 07:27:26;;;;;;;21.42;15.68;;;;;;;7.19;100.00;100674.41;5047652;28;20217;-78
2023/02/03 07:29:56;;;;;;;22.33;15.35;;;;;;;7.22;100.00;100671.34;5053079;28;20856;-77
2023/02/03 07:32:25;;;;;;;16.85;14.45;;;;;;;7.22;100.00;100663.28;5036663;28;20277;-78
2023/02/03 07:34:55;;;;;;;24.60;15.05;;;;;;;7.21;100.00;100664.28;5036041;28;20225;-78
2023/02/03 07:37:25;;;;;;;18.95;13.20;;;;;;;7.23;100.00;100638.03;5027361;28;20197;-78
2023/02/03 07:39:56;;;;;;;20.75;14.55;;;;;;;7.29;100.00;100650.75;5047415;28;20182;-79
2023/02/03 07:42:26;;;;;;;21.10;15.30;;;;;;;7.27;100.00;100647.41;5043228;28;20695;-80
2023/02/03 07:44:56;;;;;;;18.52;14.45;;;;;;;7.30;100.00;100646.22;5017796;28;20221;-80
2023/02/03 07:47:26;;;;;;;18.10;15.07;;;;;;;7.28;100.00;100638.31;5031723;28;20343;-79
2023/02/03 07:49:56;;;;;;;16.38;13.80;;;;;;;7.29;100.00;100626.53;5048181;28;20264;-80
2023/02/03 07:52:26;;;;;;;16.50;12.18;;;;;;;7.26;100.00;100632.28;5030979;28;20589;-79
2023/02/03 07:54:57;;;;;;;20.27;15.55;;;;;;;7.29;100.00;100623.84;5032294;28;20701;-77
2023/02/03 07:57:27;;;;;;;19.98;13.00;;;;;;;7.33;100.00;100621.59;5021677;28;20193;-78
2023/02/03 08:00:00;;;;;;;16.65;13.52;;;;;;;7.32;100.00;100620.75;5038159;28;20209;-79
2023/02/03 08:02:40;;;;;;;17.00;12.70;;;;;;;7.39;100.00;100616.31;5055814;28;20174;-78
2023/02/03 08:05:10;;;;;;;14.13;11.05;;;;;;;7.33;100.00;100611.66;5055107;28;20208;-78
2023/02/03 08:07:40;;;;;;;12.75;11.00;;;;;;;7.36;100.00;100602.38;5036949;28;20190;-78
2023/02/03 08:10:14;;;;;;;13.43;12.02;;;;;;;7.40;100.00;100607.22;5054047;28;20205;-78
2023/02/03 08:12:45;;;;;;;13.15;11.15;;;;;;;7.40;100.00;100588.38;5055891;28;20587;-78
2023/02/03 08:15:17;;;;;;;14.30;11.07;;;;;;;7.43;100.00;100571.81;5029315;28;20217;-78
2023/02/03 08:17:49;;;;;;;13.98;10.85;;;;;;;7.42;100.00;100578.22;5047611;28;20170;-78
2023/02/03 08:20:21;;;;;;;14.57;11.60;;;;;;;7.33;100.00;100562.38;5029030;28;20225;-79
2023/02/03 08:22:51;;;;;;;16.05;10.25;;;;;;;7.38;100.00;100563.50;5024816;28;20746;-80
2023/02/03 08:25:22;;;;;;;11.30;9.55;;;;;;;7.37;100.00;100571.75;5007489;28;20214;-79
2023/02/03 08:27:52;;;;;;;10.25;9.13;;;;;;;7.35;100.00;100565.72;5045604;28;20193;-79
2023/02/03 08:30:23;;;;;;;15.70;10.02;;;;;;;7.35;100.00;100561.19;5028249;28;20196;-77
2023/02/03 08:32:56;;;;;;;11.15;7.88;;;;;;;7.35;100.00;100560.34;5031996;28;20206;-78
2023/02/03 08:35:25;;;;;;;14.88;8.35;;;;;;;7.33;100.00;100547.06;5036020;28;20218;-78
2023/02/03 08:37:55;;;;;;;12.20;10.13;;;;;;;7.37;100.00;100550.22;5031117;28;20205;-79
2023/02/03 08:40:29;;;;;;;10.20;8.85;;;;;;;7.34;100.00;100547.91;5029894;28;20224;-79
2023/02/03 08:42:59;;;;;;;10.30;8.90;;;;;;;7.45;100.00;100549.28;5031625;28;20171;-77
2023/02/03 08:45:28;;;;;;;11.18;8.73;;;;;;;7.46;100.00;100540.97;5033315;28;20237;-80
2023/02/03 08:47:58;;;;;;;9.73;8.63;;;;;;;7.42;100.00;100532.47;5030726;28;20177;-79
2023/02/03 08:50:28;;;;;;;11.65;8.70;;;;;;;7.44;100.00;100529.59;5007445;28;20665;-79
2023/02/03 08:52:59;;;;;;;16.30;8.65;;;;;;;7.46;100.00;100521.31;5024529;28;20230;-78
2023/02/03 08:55:32;;;;;;;13.30;8.52;;;;;;;7.51;100.00;100521.56;5031079;28;20236;-79
2023/02/03 08:58:02;;;;;;;10.10;7.00;;;;;;;7.49;100.00;100512.88;5024375;28;20197;-80
2023/02/03 09:00:32;;;;;;;12.85;7.95;;;;;;;7.41;100.00;100505.72;5023728;28;20205;-78
2023/02/03 09:03:06;;;;;;;11.45;8.93;;;;;;;7.43;100.00;100504.53;5003312;28;20201;-78
2023/02/03 09:05:39;;;;;;;10.38;7.55;;;;;;;7.42;100.00;100508.25;5004195;28;20251;-82
2023/02/03 09:08:09;;;;;;;12.50;9.07;;;;;;;7.46;100.00;100507.84;5022957;28;20182;-78
2023/02/03 09:10:41;;;;;;;9.38;7.75;;;;;;;7.50;100.00;100503.78;5006230;28;20205;-80
2023/02/03 09:13:10;;;;;;;9.93;7.35;;;;;;;7.53;100.00;100500.69;5026356;28;20204;-79
2023/02/03 09:15:55;;;;;;;7.10;5.82;;;;;;;7.51;100.00;100495.47;5010311;28;20704;-78
2023/02/03 09:18:55;;;;;;;8.20;6.57;;;;;;;7.56;100.00;100492.22;5024369;28;20665;-79
2023/02/03 09:21:37;;;;;;;9.60;6.90;;;;;;;7.58;100.00;100484.78;5022959;28;20193;-79
2023/02/03 09:24:31;;;;;;;13.02;7.53;;;;;;;7.61;100.00;100496.00;5025814;28;20229;-79
2023/02/03 09:27:42;;;;;;;7.45;6.30;;;;;;;7.61;100.00;100479.00;5007344;28;20197;-80
2023/02/03 09:30:34;;;;;;;7.60;6.78;;;;;;;7.59;100.00;100471.13;5027083;28;20197;-78
2023/02/03 09:33:56;;;;;;;8.05;6.15;;;;;;;7.65;100.00;100474.91;5025348;28;20218;-78
2023/02/03 09:36:44;;;;;;;8.75;6.63;;;;;;;7.67;100.00;100464.78;5006728;28;20193;-80
2023/02/03 09:43:06;;;;;;;5.15;4.65;;;;;;;7.62;100.00;100448.34;5003281;28;20193;-79
2023/02/03 09:45:42;;;;;;;6.55;5.80;;;;;;;7.68;100.00;100464.59;5028382;28;20715;-79
2023/02/03 09:48:27;;;;;;;6.47;4.60;;;;;;;7.68;100.00;100439.50;5043289;28;20165;-80
2023/02/03 09:51:27;;;;;;;7.28;5.10;;;;;;;7.72;100.00;100438.09;5047760;28;20664;-79
2023/02/03 09:58:03;;;;;;;5.95;5.35;;;;;;;7.84;100.00;100415.81;5053994;28;20197;-78
2023/02/03 10:07:40;;;;;;;6.50;4.03;;;;;;;7.98;100.00;100381.72;5035822;28;20180;-78
2023/02/03 10:10:36;;;;;;;6.35;5.25;;;;;;;7.98;100.00;100372.81;5057076;28;20189;-79
2023/02/03 10:13:52;;;;;;;5.35;3.65;;;;;;;8.00;100.00;100376.13;5059267;28;20212;-78
2023/02/03 10:23:33;;;;;;;7.28;3.67;;;;;;;8.14;100.00;100378.69;5025812;28;20705;-78
2023/02/03 10:26:55;;;;;;;5.07;3.78;;;;;;;8.21;100.00;100374.19;5054797;28;20221;-78
2023/02/03 10:29:44;;;;;;;3.28;2.97;;;;;;;8.28;100.00;100375.03;5038395;28;20365;-78
2023/02/03 10:32:52;;;;;;;2.90;2.33;;;;;;;8.27;100.00;100384.19;5001317;28;20218;-76
2023/02/03 10:36:05;;;;;;;3.58;2.53;;;;;;;8.18;100.00;100420.38;5032103;28;20229;-78
2023/02/03 10:39:52;;;;;;;2.72;1.85;;;;;;;7.92;100.00;100433.69;5016032;28;20570;-78
2023/02/03 10:46:07;;;;;;;9.32;2.00;;;;;;;7.50;100.00;100482.22;5085364;22;20222;-73
2023/02/03 10:48:37;;;;;;;8.90;1.73;;;;;;;7.22;99.61;100500.97;5019319;28;20698;-73
2023/02/03 10:51:17;;;;;;;4.32;1.35;;;;;;;7.12;97.27;100465.44;5012217;28;20205;-75
2023/02/03 10:53:47;;;;;;;2.03;1.10;;;;;;;7.15;98.00;100447.09;4991868;28;20217;-75
2023/02/03 10:56:18;;;;;;;5.50;2.45;;;;;;;7.21;97.80;100493.94;4996307;28;20225;-75
2023/02/03 10:58:49;;;;;;;11.32;2.33;;;;;;;7.30;95.17;100460.50;5000774;28;20202;-74
2023/02/03 11:01:22;;;;;;;10.20;2.10;;;;;;;7.23;96.51;100464.97;5011520;28;20209;-73
2023/02/03 11:04:02;;;;;;;11.55;2.17;;;;;;;7.27;93.01;100474.31;5017134;28;20205;-74
2023/02/03 11:06:35;;;;;;;6.07;2.05;;;;;;;7.29;93.78;100454.28;4999905;28;20583;-75
2023/02/03 11:09:29;;;;;;;11.45;1.92;;;;;;;7.28;91.46;100482.22;4992933;28;20240;-75
2023/02/03 11:12:12;;;;;;;8.02;1.90;;;;;;;7.32;90.27;100461.94;5013207;28;20197;-75
2023/02/03 11:14:44;;;;;;;8.95;2.67;;;;;;;7.40;89.22;100455.63;5023206;28;20233;-74
2023/02/03 11:17:18;;;;;;;9.35;2.15;;;;;;;7.43;88.39;100444.47;4997945;28;20218;-75
2023/02/03 11:19:49;;;;;;;14.27;2.80;;;;;;;7.56;89.71;100438.34;5011227;28;20697;-73
2023/02/03 11:22:30;;;;;;;7.32;2.15;;;;;;;7.56;88.92;100438.34;4992879;28;20205;-73
2023/02/03 11:25:01;;;;;;;10.38;2.90;;;;;;;7.62;90.24;100433.03;4985974;28;20286;-73
2023/02/03 11:27:33;;;;;;;5.32;2.03;;;;;;;7.74;90.45;100430.66;5013389;28;20569;-74
2023/02/03 11:30:15;;;;;;;11.63;3.45;;;;;;;7.55;88.86;100452.88;4992269;28;20555;-73
2023/02/03 11:32:48;;;;;;;9.10;2.03;;;;;;;7.51;90.28;100440.78;5015328;28;20626;-73
2023/02/03 11:35:21;;;;;;;7.95;2.05;;;;;;;7.58;91.17;100455.16;5011901;28;20244;-73
2023/02/03 11:37:54;;;;;;;19.40;4.20;;;;;;;7.56;88.28;100459.91;4990446;28;20304;-73
2023/02/03 11:40:26;;;;;;;9.50;2.85;;;;;;;7.64;89.72;100454.41;4997573;28;20699;-74
2023/02/03 11:43:05;;;;;;;19.50;2.85;;;;;;;7.73;90.03;100455.94;4977930;28;20190;-74
2023/02/03 11:45:40;;;;;;;5.63;2.20;;;;;;;7.77;86.19;100484.97;4997248;28;20244;-74
2023/02/03 11:48:26;;;;;;;13.30;3.60;;;;;;;7.84;86.21;100452.72;4997367;28;20197;-73
2023/02/03 11:51:04;;;;;;;18.80;3.53;;;;;;;7.92;85.61;100460.63;4990925;28;20206;-72
2023/02/03 11:53:52;;;;;;;14.55;3.25;;;;;;;8.02;86.24;100461.13;4997799;28;20276;-73
2023/02/03 11:56:39;;;;;;;12.65;3.42;;;;;;;7.94;84.83;100450.47;5003028;28;20218;-73
2023/02/03 11:59:35;;;;;;;9.80;2.97;;;;;;;8.00;84.38;100457.78;5001189;28;20292;-73
2023/02/03 12:02:38;;;;;;;12.13;3.20;;;;;;;8.04;83.01;100459.06;4999317;28;20595;-73
2023/02/03 12:05:26;;;;;;;20.00;4.15;;;;;;;8.16;82.15;100452.13;4984613;28;20189;-74
2023/02/03 12:08:19;;;;;;;19.95;4.78;;;;;;;8.26;80.16;100463.38;4997813;28;20202;-73
2023/02/03 12:11:01;;;;;;;11.68;3.20;;;;;;;8.34;79.67;100472.34;5004935;28;20208;-74
2023/02/03 12:13:51;;;;;;;13.38;3.20;;;;;;;8.38;79.53;100460.97;4979921;28;20202;-73
2023/02/03 12:16:42;;;;;;;19.63;3.80;;;;;;;8.50;78.67;100463.97;4998073;28;20226;-73
2023/02/03 12:19:19;;;;;;;15.45;4.20;;;;;;;8.56;79.06;100457.78;5030712;28;20182;-76
2023/02/03 12:21:57;;;;;;;23.92;4.32;;;;;;;8.50;78.51;100453.16;5083469;23;20245;-78
2023/02/03 12:24:37;;;;;;;25.38;4.35;;;;;;;8.55;78.59;100462.34;5113833;28;20156;-79
2023/02/03 12:27:50;;;;;;;18.25;5.35;;;;;;;8.60;76.91;100449.09;5077464;28;20203;-81